Time;durP1;ratioP1;P1;durP2;ratioP2;P2;SDS_P1;SDS_P2;PMS_P1;PMS_P2;Temp;Humidity;BMP_temperature;BMP_pressure;BME280_temperature;BME280_humidity;BME280_pressure;Samples;Min_cycle;Max_cycle;Signal;HPM_P1;HPM_P2
2022/10/11 00:00:47;;;;;;;9.25;1.90;;;;;;;;;;5134894;27;20499;-68
2022/10/11 00:03:13;;;;;;;12.88;1.90;;;;;;;;;;5115218;27;20040;-68
2022/10/11 00:05:40;;;;;;;11.15;1.42;;;;;;;;;;5134437;27;20038;-68
2022/10/11 00:08:06;;;;;;;8.18;1.50;;;;;;;;;;5133752;27;20082;-69
2022/10/11 00:10:33;;;;;;;12.82;2.55;;;;;;;;;;5118019;27;20119;-69
2022/10/11 00:12:59;;;;;;;13.52;1.67;;;;;;;;;;5138605;27;20034;-68
2022/10/11 00:15:25;;;;;;;13.75;1.85;;;;;;;;;;5135196;27;20031;-68
2022/10/11 00:17:51;;;;;;;8.43;1.38;;;;;;;;;;5114797;27;20035;-68
2022/10/11 00:20:17;;;;;;;4.60;1.00;;;;;;;;;;5133549;27;20084;-68
2022/10/11 00:22:43;;;;;;;6.95;1.30;;;;;;;;;;5144307;27;20419;-69
2022/10/11 00:25:11;;;;;;;5.68;1.52;;;;;;;;;;5133786;27;20039;-68
2022/10/11 00:27:37;;;;;;;11.32;1.65;;;;;;;;;;5115767;27;20039;-77
2022/10/11 00:30:04;;;;;;;7.35;2.05;;;;;;;;;;5133148;27;20041;-77
2022/10/11 00:32:32;;;;;;;8.90;1.30;;;;;;;;;;5122201;27;20051;-77
2022/10/11 00:35:03;;;;;;;11.50;1.48;;;;;;;;;;5133280;27;20031;-77
2022/10/11 00:37:29;;;;;;;7.13;1.10;;;;;;;;;;5114989;27;20121;-77
2022/10/11 00:39:55;;;;;;;7.47;1.33;;;;;;;;;;5098680;28;20046;-77
2022/10/11 00:42:21;;;;;;;5.88;1.17;;;;;;;;;;5116251;27;20391;-77
2022/10/11 00:44:48;;;;;;;11.88;1.55;;;;;;;;;;5133036;27;20095;-77
2022/10/11 00:47:16;;;;;;;10.90;1.70;;;;;;;;;;5133434;27;20392;-77
2022/10/11 00:49:42;;;;;;;8.23;1.33;;;;;;;;;;5133003;27;20478;-77
2022/10/11 00:52:11;;;;;;;5.97;1.15;;;;;;;;;;5134477;27;20092;-78
2022/10/11 00:54:39;;;;;;;5.43;1.33;;;;;;;;;;5116165;28;20035;-78
2022/10/11 00:57:08;;;;;;;8.57;1.15;;;;;;;;;;5087267;28;20135;-78
2022/10/11 00:59:36;;;;;;;7.72;1.30;;;;;;;;;;5129332;28;20043;-77
2022/10/11 01:02:02;;;;;;;7.45;1.25;;;;;;;;;;5114679;28;20043;-77
2022/10/11 01:04:28;;;;;;;6.65;1.30;;;;;;;;;;5141105;27;20485;-77
2022/10/11 01:06:55;;;;;;;6.78;1.77;;;;;;;;;;5132796;28;20391;-77
2022/10/11 01:09:21;;;;;;;9.77;1.63;;;;;;;;;;5115784;27;20043;-77
2022/10/11 01:11:49;;;;;;;11.98;1.45;;;;;;;;;;5121969;28;20047;-77
2022/10/11 01:14:34;;;;;;;9.18;1.42;;;;;;;;;;5132974;28;20057;-77
2022/10/11 01:17:10;;;;;;;8.57;1.35;;;;;;;;;;5116320;28;20042;-77
2022/10/11 01:19:42;;;;;;;6.43;1.27;;;;;;;;;;5097571;28;20058;-77
2022/10/11 01:22:11;;;;;;;8.05;1.10;;;;;;;;;;5110554;28;20043;-77
2022/10/11 01:24:57;;;;;;;5.25;0.90;;;;;;;;;;5120252;27;20036;-77
2022/10/11 01:27:42;;;;;;;6.50;0.90;;;;;;;;;;5132994;28;20042;-77
2022/10/11 01:30:20;;;;;;;7.15;1.02;;;;;;;;;;5130871;27;20459;-77
2022/10/11 01:32:59;;;;;;;13.15;1.20;;;;;;;;;;5128317;27;20415;-77
2022/10/11 01:35:37;;;;;;;8.55;1.00;;;;;;;;;;5133101;28;20043;-77
2022/10/11 01:38:06;;;;;;;5.97;1.17;;;;;;;;;;5113778;28;20049;-77
2022/10/11 01:40:38;;;;;;;8.23;1.30;;;;;;;;;;5134761;27;20035;-77
2022/10/11 01:43:05;;;;;;;6.35;0.98;;;;;;;;;;5117037;27;20046;-77
2022/10/11 01:45:33;;;;;;;9.63;1.30;;;;;;;;;;5126033;27;20384;-77
2022/10/11 01:48:07;;;;;;;10.75;1.55;;;;;;;;;;5117680;27;20118;-77
2022/10/11 01:50:53;;;;;;;6.45;1.60;;;;;;;;;;5117780;27;20058;-77
2022/10/11 01:53:22;;;;;;;7.10;1.40;;;;;;;;;;5119103;27;20050;-68
2022/10/11 01:56:04;;;;;;;6.43;1.20;;;;;;;;;;5137643;27;20045;-77
2022/10/11 01:58:57;;;;;;;12.27;1.30;;;;;;;;;;5117909;27;20027;-77
2022/10/11 02:01:26;;;;;;;8.95;1.30;;;;;;;;;;5111138;27;20082;-77
2022/10/11 02:03:59;;;;;;;5.63;1.00;;;;;;;;;;5143277;27;20042;-77
2022/10/11 02:06:32;;;;;;;5.60;0.90;;;;;;;;;;5145901;27;20386;-77
2022/10/11 02:09:03;;;;;;;7.53;0.95;;;;;;;;;;5141146;27;20047;-77
2022/10/11 02:11:30;;;;;;;2.25;0.80;;;;;;;;;;5117709;27;20060;-77
2022/10/11 02:13:59;;;;;;;3.72;0.75;;;;;;;;;;5139066;27;20023;-77
2022/10/11 02:16:32;;;;;;;6.63;0.93;;;;;;;;;;5135982;27;20038;-77
2022/10/11 02:19:01;;;;;;;7.00;1.20;;;;;;;;;;5119147;27;20123;-77
2022/10/11 02:21:27;;;;;;;7.30;1.40;;;;;;;;;;5122204;27;20042;-77
2022/10/11 02:23:55;;;;;;;6.72;1.38;;;;;;;;;;5118526;27;20440;-77
2022/10/11 02:26:22;;;;;;;6.30;0.93;;;;;;;;;;5135012;27;20031;-77
2022/10/11 02:28:50;;;;;;;4.10;0.95;;;;;;;;;;5117557;27;20560;-77
2022/10/11 02:31:17;;;;;;;19.73;1.20;;;;;;;;;;5110790;27;20045;-77
2022/10/11 02:33:49;;;;;;;10.10;1.20;;;;;;;;;;5141360;27;20402;-77
2022/10/11 02:36:20;;;;;;;11.32;1.00;;;;;;;;;;5136329;27;20061;-77
2022/10/11 02:38:49;;;;;;;10.00;1.15;;;;;;;;;;5135559;27;20114;-77
2022/10/11 02:41:35;;;;;;;10.38;1.23;;;;;;;;;;5135184;27;20499;-77
2022/10/11 02:44:06;;;;;;;13.88;1.70;;;;;;;;;;5136300;27;20062;-77
2022/10/11 02:46:32;;;;;;;4.25;0.98;;;;;;;;;;5136673;27;20487;-77
2022/10/11 02:48:59;;;;;;;9.30;0.90;;;;;;;;;;5135380;27;20042;-77
2022/10/11 02:51:26;;;;;;;14.65;1.33;;;;;;;;;;5116251;27;20511;-77
2022/10/11 02:53:52;;;;;;;9.13;1.40;;;;;;;;;;5116758;27;20046;-77
2022/10/11 02:56:18;;;;;;;9.00;1.30;;;;;;;;;;5137439;27;20387;-77
2022/10/11 02:58:45;;;;;;;8.07;1.30;;;;;;;;;;5117121;27;20039;-77
2022/10/11 03:01:11;;;;;;;9.88;1.20;;;;;;;;;;5134811;27;20041;-77
2022/10/11 03:03:37;;;;;;;8.70;1.25;;;;;;;;;;5135294;27;20479;-77
2022/10/11 03:06:03;;;;;;;9.38;2.55;;;;;;;;;;5135992;27;20042;-77
2022/10/11 03:08:30;;;;;;;14.15;1.90;;;;;;;;;;5138429;27;20054;-77
2022/10/11 03:10:56;;;;;;;4.82;1.00;;;;;;;;;;5126559;27;20154;-77
2022/10/11 03:13:22;;;;;;;12.77;2.13;;;;;;;;;;5116190;27;20049;-77
2022/10/11 03:15:49;;;;;;;10.35;1.27;;;;;;;;;;5134980;27;20088;-77
2022/10/11 03:18:15;;;;;;;7.40;1.98;;;;;;;;;;5117406;27;20042;-78
2022/10/11 03:20:41;;;;;;;7.68;1.30;;;;;;;;;;5099866;27;20092;-78
2022/10/11 03:23:07;;;;;;;12.32;1.20;;;;;;;;;;5117763;27;20035;-77
2022/10/11 03:25:33;;;;;;;5.88;0.93;;;;;;;;;;5116226;27;20081;-77
2022/10/11 03:27:59;;;;;;;7.32;1.27;;;;;;;;;;5116574;27;20114;-78
2022/10/11 03:30:25;;;;;;;10.13;1.65;;;;;;;;;;5116576;27;20031;-78
2022/10/11 03:32:51;;;;;;;9.07;1.35;;;;;;;;;;5134958;27;20475;-77
2022/10/11 03:35:17;;;;;;;10.27;1.48;;;;;;;;;;5116888;27;20058;-77
2022/10/11 03:37:43;;;;;;;8.70;1.77;;;;;;;;;;5136099;27;20138;-77
2022/10/11 03:40:10;;;;;;;11.40;1.42;;;;;;;;;;5126850;27;20506;-77
2022/10/11 03:42:36;;;;;;;10.60;1.65;;;;;;;;;;5135033;27;20118;-69
2022/10/11 03:45:06;;;;;;;13.35;2.03;;;;;;;;;;5115712;27;20043;-77
2022/10/11 03:47:33;;;;;;;12.60;2.03;;;;;;;;;;5093745;27;20138;-77
2022/10/11 03:49:59;;;;;;;11.00;1.75;;;;;;;;;;5117331;27;20105;-77
2022/10/11 03:52:25;;;;;;;13.60;1.70;;;;;;;;;;5115519;27;20118;-77
2022/10/11 03:54:51;;;;;;;8.93;2.00;;;;;;;;;;5115697;27;20117;-77
2022/10/11 03:57:18;;;;;;;10.80;1.60;;;;;;;;;;5134529;27;20038;-78
2022/10/11 03:59:44;;;;;;;9.32;1.77;;;;;;;;;;5115547;27;20035;-78
2022/10/11 04:02:10;;;;;;;7.28;1.65;;;;;;;;;;5132662;27;20043;-77
2022/10/11 04:04:36;;;;;;;12.90;2.20;;;;;;;;;;5133603;27;20377;-77
2022/10/11 04:07:02;;;;;;;12.93;1.80;;;;;;;;;;5131248;27;20031;-77
2022/10/11 04:09:28;;;;;;;7.80;2.00;;;;;;;;;;5135852;27;20546;-77
2022/10/11 04:11:54;;;;;;;20.13;2.25;;;;;;;;;;5120070;27;20517;-78
2022/10/11 04:14:20;;;;;;;12.93;2.15;;;;;;;;;;5133768;27;20490;-69
2022/10/11 04:16:46;;;;;;;14.80;2.00;;;;;;;;;;5133616;27;20042;-77
2022/10/11 04:19:13;;;;;;;11.30;2.10;;;;;;;;;;5133279;27;20118;-77
2022/10/11 04:21:39;;;;;;;10.30;1.83;;;;;;;;;;5136241;27;20038;-78
2022/10/11 04:24:05;;;;;;;14.63;2.33;;;;;;;;;;5134195;27;20028;-77
2022/10/11 04:26:31;;;;;;;11.40;1.92;;;;;;;;;;5133519;27;20530;-69
2022/10/11 04:28:57;;;;;;;12.30;2.08;;;;;;;;;;5114022;27;20653;-69
2022/10/11 04:31:23;;;;;;;15.75;2.40;;;;;;;;;;5134041;27;20079;-69
2022/10/11 04:33:50;;;;;;;14.52;2.60;;;;;;;;;;5114780;27;20043;-69
2022/10/11 04:36:16;;;;;;;7.07;2.28;;;;;;;;;;5132490;27;20031;-68
2022/10/11 04:38:42;;;;;;;12.20;2.42;;;;;;;;;;5108342;27;20517;-69
2022/10/11 04:41:09;;;;;;;11.05;2.35;;;;;;;;;;5127193;27;20045;-69
2022/10/11 04:43:35;;;;;;;15.57;2.30;;;;;;;;;;5111269;28;20037;-69
2022/10/11 04:46:01;;;;;;;7.95;1.85;;;;;;;;;;5098900;28;20036;-69
2022/10/11 04:48:27;;;;;;;11.05;2.05;;;;;;;;;;5076666;28;20031;-69
2022/10/11 04:50:53;;;;;;;11.13;2.00;;;;;;;;;;5118278;27;20059;-69
2022/10/11 04:53:19;;;;;;;9.23;1.92;;;;;;;;;;5121874;27;20057;-69
2022/10/11 04:55:55;;;;;;;12.95;2.03;;;;;;;;;;5112368;28;20040;-69
2022/10/11 04:58:21;;;;;;;10.23;2.50;;;;;;;;;;5096357;28;20062;-69
2022/10/11 05:00:47;;;;;;;15.40;2.38;;;;;;;;;;5094665;28;20404;-69
2022/10/11 05:03:13;;;;;;;11.90;2.25;;;;;;;;;;5126964;27;20128;-69
2022/10/11 05:05:39;;;;;;;12.57;2.50;;;;;;;;;;5093952;28;20036;-69
2022/10/11 05:08:05;;;;;;;15.45;2.60;;;;;;;;;;5094004;28;20039;-69
2022/10/11 05:10:31;;;;;;;9.88;1.92;;;;;;;;;;5112833;28;20041;-69
2022/10/11 05:12:57;;;;;;;16.20;2.78;;;;;;;;;;5106173;27;20038;-69
2022/10/11 05:15:23;;;;;;;10.25;2.65;;;;;;;;;;5101757;27;20039;-69
2022/10/11 05:17:49;;;;;;;12.45;2.90;;;;;;;;;;5137826;27;20039;-77
2022/10/11 05:20:16;;;;;;;17.75;2.40;;;;;;;;;;5140159;27;20076;-77
2022/10/11 05:22:42;;;;;;;17.90;2.70;;;;;;;;;;5120428;27;20484;-78
2022/10/11 05:25:08;;;;;;;17.10;2.60;;;;;;;;;;5114226;27;20628;-77
2022/10/11 05:27:34;;;;;;;15.88;2.75;;;;;;;;;;5121078;27;20043;-78
2022/10/11 05:30:00;;;;;;;13.32;2.85;;;;;;;;;;5099759;28;20079;-78
2022/10/11 05:32:26;;;;;;;12.10;2.90;;;;;;;;;;5136752;27;20047;-78
2022/10/11 05:34:53;;;;;;;13.13;2.28;;;;;;;;;;5139372;27;20519;-78
2022/10/11 05:37:19;;;;;;;12.15;2.75;;;;;;;;;;5120282;27;20540;-78
2022/10/11 05:39:46;;;;;;;21.85;2.90;;;;;;;;;;5132609;27;20171;-78
2022/10/11 05:42:12;;;;;;;11.27;2.40;;;;;;;;;;5129170;27;20046;-77
2022/10/11 05:44:38;;;;;;;15.70;2.60;;;;;;;;;;5119115;27;20045;-77
2022/10/11 05:47:04;;;;;;;14.30;2.63;;;;;;;;;;5139681;27;20047;-78
2022/10/11 05:49:30;;;;;;;12.38;2.60;;;;;;;;;;5137280;27;20138;-77
2022/10/11 05:51:56;;;;;;;18.95;3.10;;;;;;;;;;5138738;27;20411;-77
2022/10/11 05:54:22;;;;;;;13.40;3.15;;;;;;;;;;5137676;27;20119;-77
2022/10/11 05:56:48;;;;;;;17.33;2.80;;;;;;;;;;5119456;27;20068;-69
2022/10/11 05:59:14;;;;;;;19.30;2.70;;;;;;;;;;5145566;27;20114;-68
2022/10/11 06:01:40;;;;;;;20.50;3.13;;;;;;;;;;5117057;27;20046;-68
2022/10/11 06:04:07;;;;;;;13.32;2.80;;;;;;;;;;5137384;27;20041;-68
2022/10/11 06:06:33;;;;;;;15.18;2.80;;;;;;;;;;5136175;27;20066;-69
2022/10/11 06:08:59;;;;;;;12.88;3.28;;;;;;;;;;5143443;27;20039;-69
2022/10/11 06:11:27;;;;;;;17.92;3.05;;;;;;;;;;5135805;27;20369;-69
2022/10/11 06:13:53;;;;;;;16.38;3.20;;;;;;;;;;5136236;27;20039;-69
2022/10/11 06:16:20;;;;;;;15.38;2.80;;;;;;;;;;5119384;27;20031;-69
2022/10/11 06:18:46;;;;;;;10.48;2.85;;;;;;;;;;5141116;27;20383;-69
2022/10/11 06:21:12;;;;;;;14.77;2.60;;;;;;;;;;5099415;28;20058;-69
2022/10/11 06:23:38;;;;;;;17.38;2.92;;;;;;;;;;5115701;27;20047;-69
2022/10/11 06:26:05;;;;;;;15.15;2.90;;;;;;;;;;5123086;27;20035;-69
2022/10/11 06:28:32;;;;;;;18.92;3.20;;;;;;;;;;5118514;27;20069;-69
2022/10/11 06:30:58;;;;;;;12.32;2.63;;;;;;;;;;5106599;27;20507;-70
2022/10/11 06:33:24;;;;;;;13.48;3.17;;;;;;;;;;5135499;27;20071;-69
2022/10/11 06:35:56;;;;;;;16.13;3.55;;;;;;;;;;5117117;27;20122;-69
2022/10/11 06:38:22;;;;;;;14.27;3.60;;;;;;;;;;5135930;27;20039;-70
2022/10/11 06:40:49;;;;;;;16.25;3.70;;;;;;;;;;5111278;27;20035;-70
2022/10/11 06:43:15;;;;;;;11.00;3.10;;;;;;;;;;5099413;27;20395;-70
2022/10/11 06:45:41;;;;;;;19.55;3.92;;;;;;;;;;5133491;27;20468;-69
2022/10/11 06:48:07;;;;;;;18.98;3.53;;;;;;;;;;5114754;28;20392;-69
2022/10/11 06:50:33;;;;;;;10.93;3.20;;;;;;;;;;5102309;27;20424;-70
2022/10/11 06:53:00;;;;;;;17.95;3.40;;;;;;;;;;5104887;27;20050;-69
2022/10/11 06:55:26;;;;;;;12.20;3.15;;;;;;;;;;5114638;28;20096;-69
2022/10/11 06:57:52;;;;;;;14.32;3.08;;;;;;;;;;5096474;28;20035;-70
2022/10/11 07:00:18;;;;;;;12.10;2.78;;;;;;;;;;5133613;27;20039;-69
2022/10/11 07:02:44;;;;;;;10.55;2.47;;;;;;;;;;5135080;27;20039;-70
2022/10/11 07:05:10;;;;;;;12.35;3.05;;;;;;;;;;5117192;27;20039;-70
2022/10/11 07:07:36;;;;;;;16.55;2.90;;;;;;;;;;5133088;27;20389;-69
2022/10/11 07:10:02;;;;;;;12.05;2.58;;;;;;;;;;5103307;27;20038;-69
2022/10/11 07:12:28;;;;;;;18.52;2.60;;;;;;;;;;5121661;27;20126;-70
2022/10/11 07:14:54;;;;;;;14.88;2.80;;;;;;;;;;5111999;27;20118;-69
2022/10/11 07:17:21;;;;;;;15.57;2.70;;;;;;;;;;5122559;27;20032;-70
2022/10/11 07:19:47;;;;;;;10.80;2.40;;;;;;;;;;5118670;27;20500;-70
2022/10/11 07:22:13;;;;;;;12.95;2.47;;;;;;;;;;5132302;27;20051;-70
2022/10/11 07:24:39;;;;;;;12.32;2.75;;;;;;;;;;5097415;28;20040;-69
2022/10/11 07:27:05;;;;;;;12.23;3.00;;;;;;;;;;5095850;28;20046;-69
2022/10/11 07:29:31;;;;;;;13.50;3.03;;;;;;;;;;5112755;28;20065;-70
2022/10/11 07:31:57;;;;;;;12.00;2.45;;;;;;;;;;5125937;27;20039;-70
2022/10/11 07:34:23;;;;;;;9.73;2.60;;;;;;;;;;5111647;28;20039;-69
2022/10/11 07:36:49;;;;;;;22.80;4.07;;;;;;;;;;5106816;27;20035;-70
2022/10/11 07:39:15;;;;;;;15.13;2.95;;;;;;;;;;5123408;27;20387;-67
2022/10/11 07:41:41;;;;;;;13.35;3.17;;;;;;;;;;5118224;27;20179;-68
2022/10/11 07:44:07;;;;;;;13.35;3.28;;;;;;;;;;5126922;27;20039;-67
2022/10/11 07:46:33;;;;;;;13.70;2.88;;;;;;;;;;5121505;27;20067;-67
2022/10/11 07:49:00;;;;;;;12.05;2.63;;;;;;;;;;5116904;27;20040;-68
2022/10/11 07:51:26;;;;;;;11.25;2.60;;;;;;;;;;5106132;28;20044;-68
2022/10/11 07:53:54;;;;;;;12.48;2.47;;;;;;;;;;5102852;27;20036;-68
2022/10/11 07:56:22;;;;;;;18.60;2.75;;;;;;;;;;5096984;27;20031;-68
2022/10/11 07:58:52;;;;;;;11.82;2.40;;;;;;;;;;5114973;27;20039;-68
2022/10/11 08:01:18;;;;;;;9.75;2.53;;;;;;;;;;5118078;27;20506;-69
2022/10/11 08:03:44;;;;;;;11.88;2.38;;;;;;;;;;5076770;28;20494;-69
2022/10/11 08:06:13;;;;;;;13.60;2.28;;;;;;;;;;5132737;27;20035;-69
2022/10/11 08:08:39;;;;;;;14.15;2.58;;;;;;;;;;5104305;28;20118;-69
2022/10/11 08:11:05;;;;;;;15.50;2.63;;;;;;;;;;5103144;27;20049;-69
2022/10/11 08:13:31;;;;;;;10.13;2.42;;;;;;;;;;5093838;27;20531;-69
2022/10/11 08:15:57;;;;;;;11.38;2.45;;;;;;;;;;5094451;28;20071;-70
2022/10/11 08:18:24;;;;;;;11.40;2.00;;;;;;;;;;5124781;27;20031;-70
2022/10/11 08:20:50;;;;;;;10.30;2.22;;;;;;;;;;5117817;27;20039;-69
2022/10/11 08:23:17;;;;;;;12.27;2.42;;;;;;;;;;5126431;27;20046;-69
2022/10/11 08:25:44;;;;;;;9.75;1.88;;;;;;;;;;5122922;27;20535;-70
2022/10/11 08:28:15;;;;;;;6.20;1.80;;;;;;;;;;5122665;27;20425;-70
2022/10/11 08:30:46;;;;;;;13.88;2.50;;;;;;;;;;5094208;27;20086;-69
2022/10/11 08:33:12;;;;;;;10.77;2.17;;;;;;;;;;5134047;27;20039;-79
2022/10/11 08:35:39;;;;;;;9.25;2.10;;;;;;;;;;5098039;28;20147;-78
2022/10/11 08:38:05;;;;;;;9.82;2.17;;;;;;;;;;5112437;28;20123;-79
2022/10/11 08:40:31;;;;;;;11.50;2.22;;;;;;;;;;5113100;28;20032;-79
2022/10/11 08:42:59;;;;;;;12.73;2.38;;;;;;;;;;5112570;28;20165;-78
2022/10/11 08:45:34;;;;;;;11.95;2.15;;;;;;;;;;5109409;27;20039;-78
2022/10/11 08:48:12;;;;;;;9.85;2.00;;;;;;;;;;5096399;28;20394;-79
2022/10/11 08:50:39;;;;;;;10.30;2.10;;;;;;;;;;5112215;28;20058;-79
2022/10/11 08:53:13;;;;;;;8.73;2.10;;;;;;;;;;5112207;28;20044;-79
2022/10/11 08:55:42;;;;;;;13.65;2.30;;;;;;;;;;5104919;27;20510;-79
2022/10/11 08:58:11;;;;;;;12.10;2.47;;;;;;;;;;5092628;28;20066;-80
2022/10/11 09:00:38;;;;;;;7.35;1.95;;;;;;;;;;5094425;28;20043;-80
2022/10/11 09:03:04;;;;;;;10.38;2.22;;;;;;;;;;5101630;27;20042;-79
2022/10/11 09:05:43;;;;;;;8.55;1.95;;;;;;;;;;5125714;28;20039;-78
2022/10/11 09:08:21;;;;;;;8.70;2.15;;;;;;;;;;5120256;27;20407;-78
2022/10/11 09:10:59;;;;;;;9.88;2.10;;;;;;;;;;5111643;28;20044;-79
2022/10/11 09:13:33;;;;;;;10.15;2.22;;;;;;;;;;5094064;28;20506;-79
2022/10/11 09:16:12;;;;;;;9.90;2.00;;;;;;;;;;5126463;27;20131;-79
2022/10/11 09:18:47;;;;;;;9.88;2.10;;;;;;;;;;5132097;27;20050;-79
2022/10/11 09:21:21;;;;;;;11.07;2.50;;;;;;;;;;5111949;28;20570;-78
2022/10/11 09:24:01;;;;;;;9.82;2.72;;;;;;;;;;5111930;28;20040;-79
2022/10/11 09:26:28;;;;;;;10.52;2.10;;;;;;;;;;5095175;28;20107;-79
2022/10/11 09:28:57;;;;;;;8.35;1.80;;;;;;;;;;5122569;27;20036;-77
2022/10/11 09:31:24;;;;;;;9.55;2.10;;;;;;;;;;5095440;28;20415;-77
2022/10/11 09:33:51;;;;;;;8.48;1.70;;;;;;;;;;5125548;28;20032;-77
2022/10/11 09:36:17;;;;;;;8.63;2.00;;;;;;;;;;5114975;28;20035;-75
2022/10/11 09:38:50;;;;;;;8.82;2.50;;;;;;;;;;5136130;27;20043;-76
2022/10/11 09:41:21;;;;;;;9.20;2.00;;;;;;;;;;5127171;27;20036;-76
2022/10/11 09:43:49;;;;;;;12.10;2.70;;;;;;;;;;5124105;27;20403;-76
2022/10/11 09:46:28;;;;;;;8.45;2.38;;;;;;;;;;5110641;28;20031;-76
2022/10/11 09:48:55;;;;;;;9.63;2.20;;;;;;;;;;5132813;27;20122;-77
2022/10/11 09:51:23;;;;;;;7.93;2.03;;;;;;;;;;5128766;27;20055;-76
2022/10/11 09:54:04;;;;;;;7.70;2.10;;;;;;;;;;5116926;27;20104;-77
2022/10/11 09:56:31;;;;;;;8.98;2.33;;;;;;;;;;5127658;27;20043;-76
2022/10/11 09:59:07;;;;;;;10.63;1.98;;;;;;;;;;5121907;27;20085;-76
2022/10/11 10:01:33;;;;;;;9.55;2.63;;;;;;;;;;5105881;27;20055;-75
2022/10/11 10:04:05;;;;;;;9.02;2.47;;;;;;;;;;5111206;27;20043;-76
2022/10/11 10:06:31;;;;;;;9.32;2.47;;;;;;;;;;5130928;27;20039;-77
2022/10/11 10:09:20;;;;;;;7.85;2.00;;;;;;;;;;5116625;27;20043;-76
2022/10/11 10:11:46;;;;;;;7.72;2.33;;;;;;;;;;5092482;27;20051;-76
2022/10/11 10:14:21;;;;;;;10.80;2.47;;;;;;;;;;5098195;27;20129;-77
2022/10/11 10:16:47;;;;;;;9.50;2.20;;;;;;;;;;5122729;27;20400;-76
2022/10/11 10:19:20;;;;;;;10.82;2.30;;;;;;;;;;5132349;27;20039;-77
2022/10/11 10:21:47;;;;;;;8.88;2.22;;;;;;;;;;5137589;27;20483;-76
2022/10/11 10:24:18;;;;;;;10.52;2.60;;;;;;;;;;5120378;27;20035;-76
2022/10/11 10:27:03;;;;;;;6.45;2.10;;;;;;;;;;5097322;27;20047;-76
2022/10/11 10:29:29;;;;;;;8.90;2.08;;;;;;;;;;5124795;27;20039;-76
2022/10/11 10:31:56;;;;;;;11.00;2.35;;;;;;;;;;5127581;27;20039;-77
2022/10/11 10:34:32;;;;;;;9.52;1.90;;;;;;;;;;5136136;27;20034;-77
2022/10/11 10:37:06;;;;;;;10.35;1.80;;;;;;;;;;5117243;27;20046;-76
2022/10/11 10:39:36;;;;;;;9.13;1.70;;;;;;;;;;5135956;27;20042;-76
2022/10/11 10:42:04;;;;;;;8.77;1.90;;;;;;;;;;5138580;27;20031;-77
2022/10/11 10:44:30;;;;;;;9.20;2.05;;;;;;;;;;5138286;27;20130;-76
2022/10/11 10:47:09;;;;;;;9.10;2.15;;;;;;;;;;5097492;28;20514;-76
2022/10/11 10:49:40;;;;;;;10.50;2.00;;;;;;;;;;5132716;27;20506;-76
2022/10/11 10:52:13;;;;;;;9.00;2.10;;;;;;;;;;5106542;28;20048;-76
2022/10/11 10:54:46;;;;;;;11.25;1.70;;;;;;;;;;5136772;27;20548;-76
2022/10/11 10:57:31;;;;;;;9.27;2.00;;;;;;;;;;5117733;27;20035;-77
2022/10/11 11:00:18;;;;;;;6.70;1.70;;;;;;;;;;5101946;27;20031;-76
2022/10/11 11:03:04;;;;;;;9.07;1.80;;;;;;;;;;5134398;27;20117;-76
2022/10/11 11:05:33;;;;;;;7.25;1.58;;;;;;;;;;5114293;28;20050;-76
2022/10/11 11:08:08;;;;;;;8.40;2.03;;;;;;;;;;5079294;27;20043;-76
2022/10/11 11:10:48;;;;;;;8.15;1.85;;;;;;;;;;5125339;27;20035;-76
2022/10/11 11:13:40;;;;;;;7.70;1.58;;;;;;;;;;5099556;27;20047;-76
2022/10/11 11:16:25;;;;;;;7.35;1.65;;;;;;;;;;5122536;27;20050;-76
2022/10/11 11:18:51;;;;;;;10.85;2.13;;;;;;;;;;5117743;27;20124;-76
2022/10/11 11:21:25;;;;;;;7.72;1.80;;;;;;;;;;5104142;28;20062;-75
2022/10/11 11:23:51;;;;;;;8.45;1.73;;;;;;;;;;5114848;27;20043;-76
2022/10/11 11:26:23;;;;;;;6.35;1.63;;;;;;;;;;5133237;27;20047;-79
2022/10/11 11:28:52;;;;;;;9.43;1.73;;;;;;;;;;5116036;27;20060;-77
2022/10/11 11:31:28;;;;;;;11.15;2.63;;;;;;;;;;5102015;27;20043;-77
2022/10/11 11:33:57;;;;;;;8.48;1.60;;;;;;;;;;5127824;27;20031;-78
2022/10/11 11:36:30;;;;;;;7.82;1.63;;;;;;;;;;5138249;27;20070;-78
2022/10/11 11:38:59;;;;;;;10.45;1.88;;;;;;;;;;5140145;27;20076;-78
2022/10/11 11:41:27;;;;;;;8.15;1.50;;;;;;;;;;5132990;27;20066;-78
2022/10/11 11:43:57;;;;;;;7.13;1.55;;;;;;;;;;5133683;27;20372;-78
2022/10/11 11:46:32;;;;;;;6.95;1.50;;;;;;;;;;5112456;27;20062;-78
2022/10/11 11:49:02;;;;;;;6.63;1.63;;;;;;;;;;5132667;27;20487;-78
2022/10/11 11:51:38;;;;;;;7.65;1.60;;;;;;;;;;5138389;27;20043;-78
2022/10/11 11:54:14;;;;;;;8.07;1.55;;;;;;;;;;5138542;27;20122;-78
2022/10/11 11:56:47;;;;;;;6.40;1.85;;;;;;;;;;5114670;27;20043;-78
2022/10/11 11:59:16;;;;;;;5.80;1.40;;;;;;;;;;5132596;27;20092;-78
2022/10/11 12:01:45;;;;;;;8.95;1.80;;;;;;;;;;5133827;27;20040;-78
2022/10/11 12:04:15;;;;;;;10.18;1.70;;;;;;;;;;5097947;27;20043;-78
2022/10/11 12:06:41;;;;;;;7.32;1.63;;;;;;;;;;5116234;27;20047;-78
2022/10/11 12:09:20;;;;;;;6.55;1.48;;;;;;;;;;5132851;27;20039;-78
2022/10/11 12:11:50;;;;;;;8.65;1.80;;;;;;;;;;5113872;27;20043;-78
2022/10/11 12:14:35;;;;;;;6.20;1.55;;;;;;;;;;5132500;27;20039;-78
2022/10/11 12:17:09;;;;;;;6.28;1.42;;;;;;;;;;5134671;27;20069;-79
2022/10/11 12:19:36;;;;;;;11.90;1.57;;;;;;;;;;5125041;27;20046;-78
2022/10/11 12:22:20;;;;;;;8.20;1.42;;;;;;;;;;5134952;27;20035;-78
2022/10/11 12:24:56;;;;;;;4.72;1.30;;;;;;;;;;5113669;27;20128;-79
2022/10/11 12:27:42;;;;;;;7.32;1.85;;;;;;;;;;5130312;27;20513;-79
2022/10/11 12:30:26;;;;;;;6.57;1.50;;;;;;;;;;5126622;27;20042;-78
2022/10/11 12:33:02;;;;;;;5.30;1.30;;;;;;;;;;5132509;27;20108;-78
2022/10/11 12:35:32;;;;;;;6.63;1.42;;;;;;;;;;5133351;27;20099;-78
2022/10/11 12:38:16;;;;;;;6.90;1.50;;;;;;;;;;5117619;27;20042;-78
2022/10/11 12:40:45;;;;;;;6.57;1.40;;;;;;;;;;5114188;27;20492;-78
2022/10/11 12:43:14;;;;;;;10.93;1.85;;;;;;;;;;5112677;27;20038;-77
2022/10/11 12:45:46;;;;;;;7.00;1.23;;;;;;;;;;5091910;28;20043;-77
2022/10/11 12:48:18;;;;;;;7.63;1.52;;;;;;;;;;5089993;27;20177;-78
2022/10/11 12:50:50;;;;;;;5.10;1.27;;;;;;;;;;5120894;27;20054;-77
2022/10/11 12:53:32;;;;;;;7.30;1.98;;;;;;;;;;5125072;27;20369;-77
2022/10/11 12:56:11;;;;;;;8.02;1.42;;;;;;;;;;5112824;28;20035;-77
2022/10/11 12:58:42;;;;;;;7.72;1.65;;;;;;;;;;5109627;27;20409;-77
2022/10/11 13:01:08;;;;;;;7.82;1.38;;;;;;;;;;5123667;27;20065;-77
2022/10/11 13:03:42;;;;;;;5.05;1.13;;;;;;;;;;5097635;28;20058;-77
2022/10/11 13:06:28;;;;;;;8.07;1.58;;;;;;;;;;5099362;28;20036;-78
2022/10/11 13:08:57;;;;;;;6.45;1.30;;;;;;;;;;5094924;28;20396;-77
2022/10/11 13:11:25;;;;;;;6.68;1.50;;;;;;;;;;5108583;28;20039;-80
2022/10/11 13:13:56;;;;;;;6.82;1.25;;;;;;;;;;5124426;27;20050;-80
2022/10/11 13:16:23;;;;;;;8.43;1.38;;;;;;;;;;5112578;28;20432;-77
2022/10/11 13:18:53;;;;;;;8.98;1.42;;;;;;;;;;5113035;28;20049;-77
2022/10/11 13:21:35;;;;;;;8.40;1.40;;;;;;;;;;5111078;28;20027;-77
2022/10/11 13:24:02;;;;;;;8.02;1.45;;;;;;;;;;5120632;27;20506;-77
2022/10/11 13:26:30;;;;;;;8.07;1.50;;;;;;;;;;5100897;28;20316;-77
2022/10/11 13:28:56;;;;;;;8.02;1.45;;;;;;;;;;5106275;27;20117;-77
2022/10/11 13:31:23;;;;;;;6.03;1.13;;;;;;;;;;5135831;27;20035;-78
2022/10/11 13:33:53;;;;;;;6.07;1.05;;;;;;;;;;5114330;28;20423;-77
2022/10/11 13:36:19;;;;;;;6.05;1.20;;;;;;;;;;5134368;27;20031;-77
2022/10/11 13:38:57;;;;;;;7.95;1.20;;;;;;;;;;5136563;27;20150;-77
2022/10/11 13:41:26;;;;;;;7.65;1.35;;;;;;;;;;5114871;27;20047;-77
2022/10/11 13:43:52;;;;;;;8.88;1.45;;;;;;;;;;5124697;27;20048;-78
2022/10/11 13:46:22;;;;;;;7.65;1.42;;;;;;;;;;5116418;28;20035;-77
2022/10/11 13:49:02;;;;;;;9.90;1.52;;;;;;;;;;5098516;28;20404;-76
2022/10/11 13:51:31;;;;;;;7.35;1.20;;;;;;;;;;5107618;27;20507;-77
2022/10/11 13:53:57;;;;;;;10.70;1.38;;;;;;;;;;5118044;27;20031;-75
2022/10/11 13:56:23;;;;;;;7.82;1.15;;;;;;;;;;5119108;27;20070;-77
2022/10/11 13:58:52;;;;;;;6.07;1.20;;;;;;;;;;5117005;28;20046;-77
2022/10/11 14:01:26;;;;;;;7.10;1.25;;;;;;;;;;5116214;28;20116;-76
2022/10/11 14:04:00;;;;;;;6.43;1.30;;;;;;;;;;5109346;27;20043;-78
2022/10/11 14:06:55;;;;;;;6.72;1.45;;;;;;;;;;5119881;27;20037;-77
2022/10/11 14:09:29;;;;;;;6.95;1.30;;;;;;;;;;5085201;28;20055;-77
2022/10/11 14:12:15;;;;;;;6.18;1.20;;;;;;;;;;5116770;28;20039;-77
2022/10/11 14:14:42;;;;;;;7.22;1.10;;;;;;;;;;5118743;27;20115;-75
2022/10/11 14:17:13;;;;;;;5.28;1.10;;;;;;;;;;5115850;28;20361;-76
2022/10/11 14:19:39;;;;;;;6.88;1.10;;;;;;;;;;5097988;28;20453;-75
2022/10/11 14:22:06;;;;;;;6.90;1.35;;;;;;;;;;5113128;27;20038;-75
2022/10/11 14:24:32;;;;;;;6.88;1.00;;;;;;;;;;5101331;27;20039;-75
2022/10/11 14:26:58;;;;;;;5.90;1.48;;;;;;;;;;5097534;27;20058;-75
2022/10/11 14:29:26;;;;;;;7.05;1.13;;;;;;;;;;5118351;27;20039;-75
2022/10/11 14:31:56;;;;;;;5.90;1.40;;;;;;;;;;5127267;27;20479;-75
2022/10/11 14:34:23;;;;;;;9.40;1.65;;;;;;;;;;5121769;27;20084;-75
2022/10/11 14:36:51;;;;;;;7.00;1.17;;;;;;;;;;5117096;27;20035;-67
2022/10/11 14:39:19;;;;;;;10.73;1.33;;;;;;;;;;5134662;27;20114;-67
2022/10/11 14:41:46;;;;;;;8.70;1.60;;;;;;;;;;5127884;27;20043;-67
2022/10/11 14:44:12;;;;;;;9.98;1.38;;;;;;;;;;5099947;27;20054;-67
2022/10/11 14:46:39;;;;;;;8.63;1.48;;;;;;;;;;5113901;28;20047;-67
2022/10/11 14:49:11;;;;;;;9.15;1.77;;;;;;;;;;5114833;28;20039;-66